M I D A S
Marine Information and Data Acquisition System
Tripno 1780 of the Zeeleeuw from 2009-09-18 06:49:10 to 2009-09-18 15:24:44
Back to CruiseResearch ActivitiesStationsMapUnderway DataData graphs

EquipmentUnitsComment
TimeDGPSUTC
LatitudeDGPSDM.mWGS84
LongitudeDGPSDM.mWGS84
HeadingGyrodeg 
SOGDGPSknotsSpeed over ground
COGDGPSdegCourse over ground
DepthEcho soundermeters200 kHz
Missing or incorrect values are displayed as -999
Navigation data collected by the RV Zeeleeuw from 2009-09-18 06:34:36 to 2009-09-18 15:24:44
                                                                                    Next 1000 lines
Time Latitude Longitude Heading SOG COG Depth
2009-09-18 06:34:46 51°13.663 2°55.958 127 -999 207 6.5
2009-09-18 06:34:50 51°13.662 2°55.958 127 -999 223 6.5
2009-09-18 06:34:55 51°13.662 2°55.958 127 -999 165 6.5
2009-09-18 06:35:00 51°13.662 2°55.958 127.1 -999 215 6.5
2009-09-18 06:35:05 51°13.662 2°55.958 127.1 -999 248 6.5
2009-09-18 06:35:10 51°13.663 2°55.958 127.1 -999 308 6.5
2009-09-18 06:35:15 51°13.663 2°55.958 127.1 -999 127 6.5
2009-09-18 06:35:20 51°13.663 2°55.958 127.1 -999 148 6.5
2009-09-18 06:35:25 51°13.663 2°55.959 127.1 -999 193 6.5
2009-09-18 06:35:29 51°13.663 2°55.958 127.1 -999 183 6.5
2009-09-18 06:35:34 51°13.663 2°55.958 127.1 0.1 204 6.5
2009-09-18 06:35:39 51°13.663 2°55.958 127.1 0.1 197 6.6
2009-09-18 06:35:44 51°13.663 2°55.958 127.2 0.1 201 6.5
2009-09-18 06:35:49 51°13.663 2°55.958 127.3 -999 160 6.5
2009-09-18 06:35:54 51°13.663 2°55.958 127.4 -999 209 6.5
2009-09-18 06:35:57 51°13.663 2°55.958 127.6 -999 7 6.6
2009-09-18 06:36:02 51°13.662 2°55.959 127.7 -999 185 6.5
2009-09-18 06:36:08 51°13.662 2°55.959 127.7 0.1 24 6.5
2009-09-18 06:36:13 51°13.662 2°55.959 127.7 -999 347 6.5
2009-09-18 06:36:18 51°13.663 2°55.959 127.7 0.1 350 6.5
2009-09-18 06:36:23 51°13.663 2°55.959 127.7 -999 278 6.5
2009-09-18 06:36:28 51°13.663 2°55.959 127.6 0.1 1 6.5
2009-09-18 06:36:33 51°13.663 2°55.959 127.5 0.1 2 6.5
2009-09-18 06:36:38 51°13.663 2°55.959 127.3 0.1 355 6.5
2009-09-18 06:36:43 51°13.662 2°55.959 127.2 -999 266 6.5
2009-09-18 06:36:48 51°13.662 2°55.959 127.1 0.1 245 6.5
2009-09-18 06:36:53 51°13.662 2°55.959 127.1 -999 279 6.5
2009-09-18 06:36:58 51°13.663 2°55.959 126.9 0.1 340 6.7
2009-09-18 06:37:03 51°13.662 2°55.959 126.7 0.1 180 6.5
2009-09-18 06:37:08 51°13.662 2°55.959 126.4 0.1 153 6.5
2009-09-18 06:37:13 51°13.662 2°55.959 126.2 -999 284 6.5
2009-09-18 06:37:18 51°13.663 2°55.959 126 -999 303 6.5
2009-09-18 06:37:22 51°13.663 2°55.959 125.8 0.1 329 6.5
2009-09-18 06:37:28 51°13.662 2°55.959 125.7 0.1 174 6.5
2009-09-18 06:37:33 51°13.663 2°55.959 125.6 -999 24 6.5
2009-09-18 06:37:38 51°13.663 2°55.959 125.5 0.1 17 6.5
2009-09-18 06:37:43 51°13.663 2°55.959 125.4 -999 32 6.5
2009-09-18 06:37:47 51°13.663 2°55.959 125.4 0.1 176 6.5
2009-09-18 06:37:53 51°13.662 2°55.959 125.3 0.1 181 6.5
2009-09-18 06:37:58 51°13.663 2°55.959 125.3 -999 188 6.5
2009-09-18 06:38:03 51°13.663 2°55.959 125.3 -999 18 6.5
2009-09-18 06:38:07 51°13.663 2°55.959 125.3 -999 358 6.5
2009-09-18 06:38:13 51°13.663 2°55.959 125.4 -999 88 6.5
2009-09-18 06:38:18 51°13.663 2°55.959 125.5 -999 46 6.5
2009-09-18 06:38:22 51°13.663 2°55.959 125.5 -999 42 6.5
2009-09-18 06:38:28 51°13.663 2°55.959 125.7 -999 74 6.5
2009-09-18 06:38:33 51°13.663 2°55.959 125.7 -999 135 6.5
2009-09-18 06:38:38 51°13.663 2°55.959 126 -999 79 6.5
2009-09-18 06:38:43 51°13.663 2°55.959 126.4 -999 159 6.7
2009-09-18 06:38:47 51°13.663 2°55.959 126.6 0.1 193 6.5
2009-09-18 06:38:53 51°13.662 2°55.959 127 0.1 167 6.5
2009-09-18 06:38:57 51°13.663 2°55.959 127.3 -999 179 6.5
2009-09-18 06:39:03 51°13.663 2°55.959 127.6 -999 191 6.5
2009-09-18 06:39:08 51°13.663 2°55.959 127.9 -999 199 6.6
2009-09-18 06:39:13 51°13.663 2°55.959 128.3 -999 189 6.5
2009-09-18 06:39:18 51°13.663 2°55.959 128.5 -999 210 6.5
2009-09-18 06:39:23 51°13.663 2°55.959 128.7 -999 12 6.6
2009-09-18 06:39:28 51°13.663 2°55.959 128.7 -999 85 6.6
2009-09-18 06:39:33 51°13.663 2°55.959 128.7 -999 292 6.5
2009-09-18 06:39:38 51°13.663 2°55.959 128.7 -999 314 6.5
2009-09-18 06:39:42 51°13.663 2°55.959 128.7 -999 204 6.5
2009-09-18 06:39:47 51°13.663 2°55.959 128.7 -999 229 6.5
2009-09-18 06:39:53 51°13.663 2°55.959 128.7 -999 175 6.6
2009-09-18 06:39:58 51°13.663 2°55.959 128.7 -999 85 6.6
2009-09-18 06:40:02 51°13.663 2°55.959 128.8 -999 210 6.5
2009-09-18 06:40:07 51°13.663 2°55.959 128.8 -999 247 6.5
2009-09-18 06:40:13 51°13.663 2°55.959 129 -999 214 6.5
2009-09-18 06:40:18 51°13.663 2°55.959 129 -999 219 6.6
2009-09-18 06:40:23 51°13.663 2°55.959 129 -999 105 6.5
2009-09-18 06:40:28 51°13.663 2°55.959 129 -999 170 6.5
2009-09-18 06:40:33 51°13.663 2°55.959 129 -999 49 6.5
2009-09-18 06:40:38 51°13.663 2°55.959 128.9 -999 314 6.5
2009-09-18 06:40:42 51°13.663 2°55.959 128.9 -999 342 6.6
2009-09-18 06:40:48 51°13.663 2°55.959 128.8 -999 195 6.6
2009-09-18 06:40:53 51°13.663 2°55.959 128.8 -999 58 6.6
2009-09-18 06:40:58 51°13.663 2°55.959 128.7 -999 215 6.6
2009-09-18 06:41:03 51°13.663 2°55.959 128.7 -999 95 6.6
2009-09-18 06:41:08 51°13.663 2°55.959 128.7 -999 240 6.6
2009-09-18 06:41:13 51°13.663 2°55.959 128.7 -999 17 6.5
2009-09-18 06:41:18 51°13.663 2°55.959 128.6 -999 211 6.6
2009-09-18 06:41:23 51°13.663 2°55.959 128.6 -999 51 6.6
2009-09-18 06:41:28 51°13.663 2°55.959 128.6 -999 230 6.6
2009-09-18 06:41:33 51°13.663 2°55.959 128.5 -999 357 6.6
2009-09-18 06:41:37 51°13.663 2°55.959 128.5 -999 250 6.7
2009-09-18 06:41:43 51°13.663 2°55.959 128.5 -999 285 6.6
2009-09-18 06:41:48 51°13.663 2°55.959 128.5 -999 227 6.6
2009-09-18 06:41:53 51°13.663 2°55.959 128.5 -999 293 6.6
2009-09-18 06:41:58 51°13.663 2°55.959 128.4 -999 204 6.6
2009-09-18 06:42:02 51°13.663 2°55.959 128.1 -999 48 6.6
2009-09-18 06:42:07 51°13.662 2°55.959 127.8 -999 154 6.6
2009-09-18 06:42:13 51°13.662 2°55.96 127.4 -999 95 6.7
2009-09-18 06:42:18 51°13.662 2°55.96 126.8 -999 88 6.6
2009-09-18 06:42:22 51°13.662 2°55.96 126.2 0.1 72 6.6
2009-09-18 06:42:27 51°13.662 2°55.96 125.6 -999 98 6.6
2009-09-18 06:42:33 51°13.662 2°55.96 124.7 -999 70 6.6
2009-09-18 06:42:38 51°13.662 2°55.96 123.7 -999 180 6.6
2009-09-18 06:42:43 51°13.662 2°55.96 123 -999 212 6.6
2009-09-18 06:42:48 51°13.662 2°55.96 122.7 0.1 188 6.6
2009-09-18 06:42:53 51°13.662 2°55.96 122.1 -999 179 6.6
2009-09-18 06:42:58 51°13.662 2°55.96 121.6 0.1 186 6.6
2009-09-18 06:43:02 51°13.661 2°55.96 120.9 0.1 196 6.6
2009-09-18 06:43:08 51°13.661 2°55.961 120.3 0.1 192 6.7
2009-09-18 06:43:13 51°13.661 2°55.96 119.6 0.1 197 6.7
2009-09-18 06:43:18 51°13.661 2°55.96 118.8 0.1 194 6.7
2009-09-18 06:43:22 51°13.661 2°55.96 117.9 0.1 200 6.7
2009-09-18 06:43:27 51°13.661 2°55.96 117.3 0.1 202 6.7
2009-09-18 06:43:33 51°13.661 2°55.96 116.6 0.1 212 6.7
2009-09-18 06:43:38 51°13.661 2°55.96 116 0.1 202 6.7
2009-09-18 06:43:42 51°13.661 2°55.96 115.3 0.1 194 6.7
2009-09-18 06:43:48 51°13.661 2°55.96 114.6 0.1 186 6.7
2009-09-18 06:43:53 51°13.66 2°55.96 114 0.1 186 6.7
2009-09-18 06:43:58 51°13.66 2°55.96 113.2 0.1 193 6.7
2009-09-18 06:44:02 51°13.66 2°55.96 112.5 -999 246 6.7
2009-09-18 06:44:08 51°13.66 2°55.96 111.8 0.1 291 6.7
2009-09-18 06:44:13 51°13.66 2°55.959 111.2 0.3 288 6.7
2009-09-18 06:44:18 51°13.661 2°55.958 111.1 0.5 292 6.7
2009-09-18 06:44:23 51°13.661 2°55.956 110.9 0.8 289 6.8
2009-09-18 06:44:27 51°13.662 2°55.955 110.9 1.1 291 6.8
2009-09-18 06:44:33 51°13.663 2°55.951 110.8 1.3 292 6.8
2009-09-18 06:44:38 51°13.664 2°55.948 110.8 1.5 292 -999
2009-09-18 06:44:44 51°13.665 2°55.944 110.8 1.7 292 -999
2009-09-18 06:44:49 51°13.666 2°55.94 110.5 2 293 -999
2009-09-18 06:44:55 51°13.668 2°55.934 110.1 2.3 292 -999
2009-09-18 06:45:01 51°13.67 2°55.928 109.8 2.5 291 -999
2009-09-18 06:45:06 51°13.671 2°55.923 109.3 2.7 290 -999
2009-09-18 06:45:11 51°13.672 2°55.917 108.7 2.9 288 -999
2009-09-18 06:45:16 51°13.673 2°55.911 108.3 3 288 -999
2009-09-18 06:45:21 51°13.675 2°55.904 108.1 3.2 287 -999
2009-09-18 06:45:26 51°13.676 2°55.897 107.9 3.2 287 -999
2009-09-18 06:45:31 51°13.677 2°55.89 107.9 3.4 287 -999
2009-09-18 06:45:36 51°13.678 2°55.883 108 3.5 286 -999
2009-09-18 06:45:41 51°13.68 2°55.875 107.8 3.6 286 -999
2009-09-18 06:45:46 51°13.681 2°55.868 107.5 3.6 287 -999
2009-09-18 06:45:51 51°13.683 2°55.86 107 3.6 287 -999
2009-09-18 06:45:56 51°13.684 2°55.852 106.6 3.7 286 -999
2009-09-18 06:46:01 51°13.686 2°55.844 106.1 3.8 286 -999
2009-09-18 06:46:06 51°13.687 2°55.836 105.4 3.8 286 -999
2009-09-18 06:46:11 51°13.688 2°55.828 104.7 3.7 285 -999
2009-09-18 06:46:16 51°13.69 2°55.82 103.9 3.7 285 -999
2009-09-18 06:46:21 51°13.691 2°55.812 103.1 3.6 284 -999
2009-09-18 06:46:26 51°13.692 2°55.805 101.9 3.6 284 -999
2009-09-18 06:46:31 51°13.693 2°55.797 100.7 3.5 282 -999
2009-09-18 06:46:35 51°13.694 2°55.791 99.2 3.4 282 -999
2009-09-18 06:46:41 51°13.695 2°55.783 97.6 3.3 280 -999
2009-09-18 06:46:46 51°13.696 2°55.776 95.9 3.2 279 -999
2009-09-18 06:46:51 51°13.696 2°55.769 94.2 3 277 -999
2009-09-18 06:46:56 51°13.697 2°55.763 92.4 2.9 276 -999
2009-09-18 06:47:01 51°13.697 2°55.757 91.1 2.6 276 -999
2009-09-18 06:47:06 51°13.697 2°55.752 89.5 2.1 274 -999
2009-09-18 06:47:11 51°13.698 2°55.749 87.8 1.5 276 -999
2009-09-18 06:47:16 51°13.698 2°55.747 84.4 0.8 284 -999
2009-09-18 06:47:21 51°13.698 2°55.746 80.1 0.4 316 -999
2009-09-18 06:47:26 51°13.698 2°55.746 76 0.4 358 12.1
2009-09-18 06:47:30 51°13.699 2°55.746 71.3 0.5 19 12
2009-09-18 06:47:35 51°13.7 2°55.747 66.9 0.7 30 11.9
2009-09-18 06:47:40 51°13.7 2°55.748 61.3 0.8 35 11.9
2009-09-18 06:47:45 51°13.701 2°55.749 56 0.8 33 11.9
2009-09-18 06:47:49 51°13.702 2°55.75 50.9 0.8 30 12
2009-09-18 06:47:54 51°13.703 2°55.751 47.2 0.7 28 12
2009-09-18 06:47:58 51°13.703 2°55.751 44.4 0.4 19 12
2009-09-18 06:48:04 51°13.703 2°55.751 41.7 0.2 318 11.9
2009-09-18 06:48:09 51°13.703 2°55.75 38.8 0.3 247 11.9
2009-09-18 06:48:13 51°13.703 2°55.749 36.1 0.6 231 11.8
2009-09-18 06:48:18 51°13.702 2°55.748 33.7 0.9 224 11.7
2009-09-18 06:48:22 51°13.701 2°55.747 31.3 1.1 219 11.8
2009-09-18 06:48:27 51°13.7 2°55.745 29.1 1.3 216 11.9
2009-09-18 06:48:33 51°13.697 2°55.743 26.9 1.6 213 12.1
2009-09-18 06:48:38 51°13.696 2°55.741 24.6 1.5 213 -999
2009-09-18 06:48:43 51°13.694 2°55.74 22.1 1.4 210 -999
2009-09-18 06:48:49 51°13.692 2°55.738 20 1.1 214 -999
2009-09-18 06:48:55 51°13.691 2°55.737 18.5 0.5 228 -999
2009-09-18 06:49:00 51°13.692 2°55.736 15.3 0.5 325 -999
2009-09-18 06:49:06 51°13.693 2°55.735 10.2 1 346 -999
2009-09-18 06:49:11 51°13.695 2°55.735 3.8 1.6 346 -999
2009-09-18 06:49:16 51°13.698 2°55.734 356.6 1.9 344 -999
2009-09-18 06:49:21 51°13.701 2°55.732 349.2 2.4 336 4.8
2009-09-18 06:49:26 51°13.705 2°55.729 343.8 2.8 335 -999
2009-09-18 06:49:30 51°13.708 2°55.727 339.3 3.3 333 12
2009-09-18 06:49:36 51°13.713 2°55.722 336.7 3.8 333 10.9
2009-09-18 06:49:40 51°13.718 2°55.719 335.7 4.3 332 10.8
2009-09-18 06:49:45 51°13.723 2°55.714 335.4 4.7 332 10.8
2009-09-18 06:49:50 51°13.729 2°55.709 335.5 5 334 10.8
2009-09-18 06:49:54 51°13.734 2°55.705 336 5.3 332 10.7
2009-09-18 06:49:59 51°13.741 2°55.699 336.1 5.6 334 10.5
2009-09-18 06:50:04 51°13.749 2°55.693 336.3 5.9 334 10.9
2009-09-18 06:50:09 51°13.756 2°55.688 336.3 6.1 334 10.7
2009-09-18 06:50:14 51°13.764 2°55.681 336.3 6.3 334 10.7
2009-09-18 06:50:18 51°13.771 2°55.677 336.5 6.5 334 10.6
2009-09-18 06:50:23 51°13.779 2°55.67 336.4 6.7 334 10.6
2009-09-18 06:50:29 51°13.789 2°55.662 336.8 6.8 335 10.7
2009-09-18 06:50:33 51°13.796 2°55.657 337.1 7 334 10.7
2009-09-18 06:50:38 51°13.805 2°55.65 337.1 7.1 335 10.8
2009-09-18 06:50:42 51°13.812 2°55.645 336.6 7.2 334 10.5
2009-09-18 06:50:47 51°13.821 2°55.638 336.5 7.3 335 10.7
2009-09-18 06:50:53 51°13.832 2°55.63 336.9 7.3 335 10.4
2009-09-18 06:50:57 51°13.84 2°55.624 336.9 7.5 335 10.1
2009-09-18 06:51:02 51°13.85 2°55.617 337.2 7.5 336 10.6
2009-09-18 06:51:08 51°13.861 2°55.609 337.6 7.6 335 10.7
2009-09-18 06:51:13 51°13.871 2°55.602 337.5 7.7 335 10.5
2009-09-18 06:51:17 51°13.878 2°55.596 336.9 7.8 334 10.6
2009-09-18 06:51:22 51°13.888 2°55.588 336.9 7.9 335 10.4
2009-09-18 06:51:27 51°13.898 2°55.581 337.1 8 335 10.4
2009-09-18 06:51:33 51°13.911 2°55.572 337.5 8.1 336 10.5
2009-09-18 06:51:38 51°13.921 2°55.564 337.6 8.2 335 10.5
2009-09-18 06:51:42 51°13.929 2°55.559 337.9 8.2 336 10.5
2009-09-18 06:51:48 51°13.942 2°55.549 338.2 8.3 335 10.5
2009-09-18 06:51:52 51°13.95 2°55.543 337.9 8.3 335 10.5
2009-09-18 06:51:58 51°13.963 2°55.534 337.5 8.4 335 10.5
2009-09-18 06:52:02 51°13.971 2°55.527 337.6 8.4 336 10.5
2009-09-18 06:52:08 51°13.984 2°55.518 337.6 8.4 335 10.4
2009-09-18 06:52:13 51°13.995 2°55.51 337.2 8.4 335 10.4
2009-09-18 06:52:18 51°14.005 2°55.502 337.1 8.4 335 10.5
2009-09-18 06:52:22 51°14.014 2°55.496 337.6 8.4 335 10.3
2009-09-18 06:52:27 51°14.024 2°55.488 336.9 8.5 334 10
2009-09-18 06:52:33 51°14.037 2°55.478 336.1 8.4 334 9.8
2009-09-18 06:52:37 51°14.045 2°55.471 335.8 8.4 333 10.1
2009-09-18 06:52:42 51°14.056 2°55.463 336 8.4 334 10.1
2009-09-18 06:52:48 51°14.068 2°55.453 336.1 8.4 333 10
2009-09-18 06:52:53 51°14.079 2°55.445 335.8 8.4 333 10.1
2009-09-18 06:52:57 51°14.087 2°55.438 335.8 8.4 333 9.5
2009-09-18 06:53:02 51°14.097 2°55.43 335.9 8.4 333 9.9
2009-09-18 06:53:08 51°14.109 2°55.42 335.9 8.4 333 9.9
2009-09-18 06:53:13 51°14.12 2°55.411 335.3 8.4 332 10
2009-09-18 06:53:17 51°14.128 2°55.404 334.2 8.4 332 10
2009-09-18 06:53:22 51°14.138 2°55.395 333.9 8.3 332 10.1
2009-09-18 06:53:27 51°14.148 2°55.386 334 8.3 331 10.1
2009-09-18 06:53:33 51°14.16 2°55.375 333.6 8.3 330 10.1
2009-09-18 06:53:38 51°14.17 2°55.365 332 8.3 328 10
2009-09-18 06:53:42 51°14.178 2°55.357 330.1 8.4 326 10
2009-09-18 06:53:48 51°14.189 2°55.345 328.1 8.5 324 9.9
2009-09-18 06:53:53 51°14.199 2°55.334 325.9 8.6 322 9.9
2009-09-18 06:53:58 51°14.208 2°55.321 324.2 8.6 321 9.9
2009-09-18 06:54:02 51°14.215 2°55.311 323.4 8.7 320 10
2009-09-18 06:54:08 51°14.226 2°55.296 321.8 8.8 318 10
2009-09-18 06:54:13 51°14.235 2°55.282 320.3 8.9 316 9.9
2009-09-18 06:54:18 51°14.244 2°55.268 319 9 316 9.8
2009-09-18 06:54:22 51°14.251 2°55.257 317.7 9.1 314 9.9
2009-09-18 06:54:27 51°14.26 2°55.242 315.7 9.3 312 10.4
2009-09-18 06:54:33 51°14.27 2°55.223 314.8 9.4 312 9.9
2009-09-18 06:54:37 51°14.277 2°55.211 314.6 9.5 312 10
2009-09-18 06:54:42 51°14.286 2°55.194 313.6 9.7 309 9.6
2009-09-18 06:54:47 51°14.294 2°55.177 310.9 9.8 308 9.4
2009-09-18 06:54:53 51°14.304 2°55.156 310.1 9.9 308 9.6
2009-09-18 06:54:57 51°14.311 2°55.142 310.2 9.9 307 9.9
2009-09-18 06:55:02 51°14.319 2°55.124 309 10 305 9.9
2009-09-18 06:55:08 51°14.328 2°55.102 306.7 10.1 303 9.9
2009-09-18 06:55:13 51°14.336 2°55.083 305.8 10.2 304 9.9
2009-09-18 06:55:17 51°14.342 2°55.068 305.3 10.2 301 9.7
2009-09-18 06:55:22 51°14.349 2°55.048 303.3 10.2 299 9.3
2009-09-18 06:55:27 51°14.355 2°55.028 300.3 10.2 297 8.5
2009-09-18 06:55:33 51°14.364 2°55.005 300.6 10.3 301 8.6
2009-09-18 06:55:37 51°14.37 2°54.989 303.9 10.3 303 8.5
2009-09-18 06:55:42 51°14.378 2°54.971 306.3 10.4 305 8.6
2009-09-18 06:55:48 51°14.388 2°54.948 308.9 10.6 306 8.8
2009-09-18 06:55:53 51°14.398 2°54.929 310.2 10.7 307 8.8
2009-09-18 06:55:57 51°14.405 2°54.914 311.8 10.8 308 9.1
2009-09-18 06:56:02 51°14.415 2°54.896 312.9 10.8 310 9.3
2009-09-18 06:56:07 51°14.424 2°54.877 314.8 11 310 9.4
2009-09-18 06:56:13 51°14.436 2°54.855 316.7 11 312 9.2
2009-09-18 06:56:17 51°14.445 2°54.841 318.7 11 311 9.4
2009-09-18 06:56:22 51°14.454 2°54.822 318.7 11.1 311 9.6
2009-09-18 06:56:27 51°14.465 2°54.805 319.4 11 315 9.5
2009-09-18 06:56:32 51°14.476 2°54.788 322.7 11 318 9.5
2009-09-18 06:56:38 51°14.49 2°54.77 327 11 321 9.5
2009-09-18 06:56:42 51°14.5 2°54.758 329.6 10.9 321 9.4
2009-09-18 06:56:47 51°14.511 2°54.743 330.7 10.9 321 9.4
2009-09-18 06:56:53 51°14.526 2°54.725 331.2 11 321 9.3
2009-09-18 06:56:58 51°14.537 2°54.708 330.4 11 318 9.3
2009-09-18 06:57:02 51°14.546 2°54.694 326.7 11.1 313 9.4
2009-09-18 06:57:08 51°14.559 2°54.672 322.4 11.3 312 9.3
2009-09-18 06:57:13 51°14.569 2°54.653 321 11.3 311 9.3
2009-09-18 06:57:17 51°14.577 2°54.638 320.2 11.4 309 9.2
2009-09-18 06:57:23 51°14.588 2°54.614 318 11.4 307 9.2
2009-09-18 06:57:28 51°14.598 2°54.593 316.1 11.5 306 9.2
2009-09-18 06:57:33 51°14.607 2°54.572 313.8 11.5 304 9.2
2009-09-18 06:57:38 51°14.616 2°54.551 312.4 11.5 304 9.3
2009-09-18 06:57:43 51°14.624 2°54.529 312.5 11.6 304 9.4
2009-09-18 06:57:48 51°14.633 2°54.507 311.9 11.6 303 9.3
2009-09-18 06:57:54 51°14.643 2°54.481 310.6 11.6 302 9.2
2009-09-18 06:57:58 51°14.65 2°54.464 310.5 11.6 303 9.4
2009-09-18 06:58:03 51°14.659 2°54.443 310.5 11.6 302 9.4
2009-09-18 06:58:08 51°14.667 2°54.421 309.8 11.6 302 9.3
2009-09-18 06:58:13 51°14.676 2°54.399 308.8 11.5 301 9.2
2009-09-18 06:58:18 51°14.684 2°54.377 308.7 11.6 301 9.2
2009-09-18 06:58:23 51°14.692 2°54.355 308.2 11.6 300 9.5
2009-09-18 06:58:28 51°14.7 2°54.333 307.6 11.6 301 9.5
2009-09-18 06:58:33 51°14.709 2°54.311 307.8 11.6 301 9.5
2009-09-18 06:58:38 51°14.717 2°54.289 308.1 11.6 300 9.4
2009-09-18 06:58:43 51°14.724 2°54.266 307.5 11.6 300 9.3
2009-09-18 06:58:48 51°14.733 2°54.244 307.5 11.5 300 9.2
2009-09-18 06:58:53 51°14.741 2°54.222 307.3 11.6 300 9.4
2009-09-18 06:58:58 51°14.749 2°54.2 307.6 11.6 301 9.5
2009-09-18 06:59:03 51°14.757 2°54.178 307.8 11.6 300 9.4
2009-09-18 06:59:07 51°14.763 2°54.161 307.7 11.6 301 9.2
2009-09-18 06:59:12 51°14.771 2°54.138 307.7 11.5 300 8.9
2009-09-18 06:59:17 51°14.779 2°54.117 307.3 11.6 300 9.1
2009-09-18 06:59:23 51°14.789 2°54.09 307.3 11.5 300 8.7
2009-09-18 06:59:27 51°14.795 2°54.072 307.4 11.5 300 8.8
2009-09-18 06:59:33 51°14.805 2°54.046 307.4 11.5 300 8.8
2009-09-18 06:59:38 51°14.812 2°54.024 307.5 11.5 299 8.7
2009-09-18 06:59:43 51°14.82 2°54.001 307.6 11.5 299 8.6
2009-09-18 06:59:47 51°14.826 2°53.983 307.8 11.5 299 8.8
2009-09-18 06:59:52 51°14.834 2°53.961 308.1 11.6 299 8.8
2009-09-18 06:59:58 51°14.843 2°53.934 308 11.6 298 8.9
2009-09-18 07:00:03 51°14.851 2°53.911 308.1 11.7 298 8.9
2009-09-18 07:00:08 51°14.859 2°53.889 308.4 11.7 298 8.8
2009-09-18 07:00:13 51°14.866 2°53.866 308.5 11.6 299 8.7
2009-09-18 07:00:18 51°14.874 2°53.844 308.8 11.5 300 8.8
2009-09-18 07:00:23 51°14.882 2°53.823 309.6 11.4 302 8.8
2009-09-18 07:00:28 51°14.891 2°53.801 310 11.5 302 8.8
2009-09-18 07:00:33 51°14.899 2°53.779 309.1 11.5 300 9
2009-09-18 07:00:38 51°14.907 2°53.758 309.3 11.5 302 8.9
2009-09-18 07:00:43 51°14.916 2°53.736 309.4 11.4 302 8.9
2009-09-18 07:00:48 51°14.924 2°53.715 309.7 11.5 301 8.9
2009-09-18 07:00:53 51°14.932 2°53.693 309.1 11.4 301 8.8
2009-09-18 07:00:58 51°14.94 2°53.671 308.6 11.5 301 8.9
2009-09-18 07:01:03 51°14.948 2°53.649 308.8 11.4 300 8.8
2009-09-18 07:01:08 51°14.956 2°53.628 308.5 11.4 301 8.7
2009-09-18 07:01:13 51°14.964 2°53.606 308.9 11.4 301 9.1
2009-09-18 07:01:18 51°14.972 2°53.584 308.8 11.5 301 9
2009-09-18 07:01:23 51°14.98 2°53.563 309.1 11.4 301 9.1
2009-09-18 07:01:28 51°14.988 2°53.541 309.3 11.4 300 9
2009-09-18 07:01:33 51°14.997 2°53.52 309 11.4 301 8.8
2009-09-18 07:01:38 51°15.004 2°53.498 308.8 11.4 300 8.7
2009-09-18 07:01:43 51°15.012 2°53.476 308.7 11.4 300 9.1
2009-09-18 07:01:48 51°15.021 2°53.455 308.8 11.4 301 9
2009-09-18 07:01:53 51°15.029 2°53.433 309.1 11.4 300 8.8
2009-09-18 07:01:58 51°15.036 2°53.411 308.6 11.5 299 8.8
2009-09-18 07:02:03 51°15.044 2°53.388 308.1 11.5 298 9.2
2009-09-18 07:02:08 51°15.052 2°53.366 308.4 11.5 300 9.2
2009-09-18 07:02:13 51°15.059 2°53.344 308.4 11.6 298 9.3
2009-09-18 07:02:18 51°15.067 2°53.322 308.3 11.5 300 9.2
2009-09-18 07:02:23 51°15.075 2°53.3 308.6 11.6 299 9.2
2009-09-18 07:02:28 51°15.083 2°53.277 309.2 11.6 299 9.3
2009-09-18 07:02:33 51°15.09 2°53.255 308.7 11.5 299 9.2
2009-09-18 07:02:38 51°15.098 2°53.233 308.6 11.5 300 9.3
2009-09-18 07:02:43 51°15.106 2°53.211 308.7 11.6 299 9.6
2009-09-18 07:02:48 51°15.114 2°53.188 309 11.5 300 9.2
2009-09-18 07:02:53 51°15.122 2°53.166 308.9 11.5 299 9.3
2009-09-18 07:02:58 51°15.129 2°53.145 309.1 11.5 301 9.4
2009-09-18 07:03:03 51°15.137 2°53.123 309.3 11.6 299 9.6
2009-09-18 07:03:08 51°15.145 2°53.1 308.8 11.5 299 9.7
2009-09-18 07:03:13 51°15.153 2°53.078 308.9 11.6 299 9.5
2009-09-18 07:03:18 51°15.161 2°53.056 308.7 11.6 299 9.5
2009-09-18 07:03:23 51°15.168 2°53.033 308.6 11.6 299 9.6
2009-09-18 07:03:28 51°15.176 2°53.01 308.6 11.6 298 9.8
2009-09-18 07:03:33 51°15.184 2°52.988 308.6 11.5 299 9.5
2009-09-18 07:03:38 51°15.192 2°52.966 308.9 11.6 299 9.9
2009-09-18 07:03:43 51°15.199 2°52.943 308.8 11.6 298 9.7
2009-09-18 07:03:48 51°15.207 2°52.921 308.8 11.6 300 9.9
2009-09-18 07:03:53 51°15.215 2°52.899 309.3 11.6 299 9.8
2009-09-18 07:03:58 51°15.223 2°52.877 309 11.6 299 9.8
2009-09-18 07:04:03 51°15.231 2°52.854 309 11.6 300 9.9
2009-09-18 07:04:08 51°15.239 2°52.833 309.8 11.5 300 10
2009-09-18 07:04:13 51°15.247 2°52.811 309.7 11.6 300 10.1
2009-09-18 07:04:18 51°15.255 2°52.789 309.4 11.5 302 10.2
2009-09-18 07:04:23 51°15.263 2°52.767 309.6 11.6 299 10.1
2009-09-18 07:04:28 51°15.272 2°52.745 309.2 11.6 300 10.3
2009-09-18 07:04:33 51°15.28 2°52.723 309.3 11.5 301 10
2009-09-18 07:04:38 51°15.287 2°52.7 309 11.6 299 9.9
2009-09-18 07:04:43 51°15.295 2°52.679 308.6 11.5 301 10.2
2009-09-18 07:04:48 51°15.303 2°52.656 308.9 11.5 300 10.4
2009-09-18 07:04:53 51°15.311 2°52.634 309.3 11.5 301 10.1
2009-09-18 07:04:58 51°15.32 2°52.612 309.2 11.6 300 10.3
2009-09-18 07:05:03 51°15.328 2°52.59 309.3 11.6 300 10.3
2009-09-18 07:05:08 51°15.336 2°52.568 309.1 11.6 300 10.3
2009-09-18 07:05:13 51°15.344 2°52.546 309.2 11.6 301 10.5
2009-09-18 07:05:18 51°15.352 2°52.524 309.7 11.7 300 10.3
2009-09-18 07:05:23 51°15.36 2°52.502 309.9 11.6 302 10.5
2009-09-18 07:05:28 51°15.368 2°52.479 309.9 11.7 300 10.2
2009-09-18 07:05:33 51°15.376 2°52.457 309.3 11.6 300 10.3
2009-09-18 07:05:38 51°15.384 2°52.434 309 11.6 298 10.5
2009-09-18 07:05:43 51°15.392 2°52.412 308.6 11.6 299 10.4
2009-09-18 07:05:48 51°15.399 2°52.389 308.5 11.6 298 10.8
2009-09-18 07:05:53 51°15.407 2°52.367 308.9 11.5 300 10.4
2009-09-18 07:05:58 51°15.415 2°52.345 309.5 11.6 300 10.8
2009-09-18 07:06:03 51°15.423 2°52.323 309.9 11.6 300 10.8
2009-09-18 07:06:08 51°15.43 2°52.3 309.5 11.7 299 10.8
2009-09-18 07:06:13 51°15.439 2°52.278 309.3 11.7 299 10.7
2009-09-18 07:06:18 51°15.447 2°52.256 309.1 11.8 298 10.9
2009-09-18 07:06:23 51°15.455 2°52.233 308.8 11.8 298 10.8
2009-09-18 07:06:28 51°15.462 2°52.209 308.6 11.8 298 10.9
2009-09-18 07:06:33 51°15.47 2°52.187 308.8 11.8 299 10.9
2009-09-18 07:06:38 51°15.477 2°52.163 309.1 11.9 297 11.1
2009-09-18 07:06:43 51°15.485 2°52.14 309.1 11.8 297 10.8
2009-09-18 07:06:48 51°15.492 2°52.117 309.1 11.8 297 11.2
2009-09-18 07:06:53 51°15.5 2°52.093 308.9 11.9 297 11.2
2009-09-18 07:06:58 51°15.507 2°52.07 309.3 11.9 298 11
2009-09-18 07:07:03 51°15.515 2°52.046 309.4 11.9 298 11.3
2009-09-18 07:07:08 51°15.523 2°52.023 309.4 11.9 298 11.3
2009-09-18 07:07:13 51°15.531 2°52 310 11.8 299 11.2
2009-09-18 07:07:18 51°15.539 2°51.977 309.8 11.8 299 11.4
2009-09-18 07:07:23 51°15.546 2°51.954 309.4 11.8 299 11.4
2009-09-18 07:07:28 51°15.555 2°51.932 309.7 11.8 300 11.4
2009-09-18 07:07:33 51°15.562 2°51.909 309.7 11.9 298 11.6
2009-09-18 07:07:38 51°15.571 2°51.887 309.5 11.8 301 11.7
2009-09-18 07:07:43 51°15.579 2°51.863 309.7 11.7 298 11.7
2009-09-18 07:07:48 51°15.587 2°51.841 309.7 11.7 301 11.4
2009-09-18 07:07:53 51°15.595 2°51.819 309.4 11.6 299 11.7
2009-09-18 07:07:58 51°15.603 2°51.797 309.4 11.6 301 11.5
2009-09-18 07:08:03 51°15.611 2°51.774 309.2 11.5 299 11.6
2009-09-18 07:08:08 51°15.619 2°51.753 309.3 11.5 301 11.6
2009-09-18 07:08:13 51°15.627 2°51.731 309.2 11.5 300 11.8
2009-09-18 07:08:18 51°15.635 2°51.708 309.5 11.5 301 11.8
2009-09-18 07:08:23 51°15.643 2°51.687 309.4 11.5 300 11.6
2009-09-18 07:08:28 51°15.651 2°51.664 309.3 11.6 299 11.7
2009-09-18 07:08:33 51°15.659 2°51.642 309.3 11.6 301 11.7
2009-09-18 07:08:38 51°15.667 2°51.62 309.6 11.5 299 11.4
2009-09-18 07:08:43 51°15.675 2°51.598 309.1 11.5 300 11.9
2009-09-18 07:08:48 51°15.683 2°51.576 309.4 11.5 300 11.7
2009-09-18 07:08:52 51°15.689 2°51.558 309.4 11.4 300 11.6
2009-09-18 07:08:58 51°15.699 2°51.532 309.3 11.5 299 11.8
2009-09-18 07:09:03 51°15.707 2°51.51 308.7 11.5 300 12.1
2009-09-18 07:09:08 51°15.715 2°51.488 309.2 11.5 301 11.9
2009-09-18 07:09:13 51°15.723 2°51.465 309.7 11.6 299 12
2009-09-18 07:09:18 51°15.731 2°51.444 309.2 11.5 301 12.1
2009-09-18 07:09:23 51°15.738 2°51.421 309.2 11.6 298 12.1
2009-09-18 07:09:28 51°15.746 2°51.399 309 11.6 300 12.1
2009-09-18 07:09:33 51°15.755 2°51.377 309.4 11.6 300 12.2
2009-09-18 07:09:38 51°15.763 2°51.355 309.4 11.5 301 12.1
2009-09-18 07:09:43 51°15.771 2°51.333 309.9 11.5 300 12.2
2009-09-18 07:09:48 51°15.779 2°51.311 309.7 11.5 300 12.3
2009-09-18 07:09:53 51°15.787 2°51.289 309.4 11.6 301 12.2
2009-09-18 07:09:58 51°15.795 2°51.267 309.3 11.6 300 12.2
2009-09-18 07:10:03 51°15.804 2°51.245 309.2 11.6 301 12.2
2009-09-18 07:10:08 51°15.812 2°51.223 309.4 11.6 300 11.8
2009-09-18 07:10:13 51°15.819 2°51.201 309 11.6 299 12
2009-09-18 07:10:18 51°15.828 2°51.179 309 11.6 301 12
2009-09-18 07:10:23 51°15.835 2°51.156 309.2 11.6 298 11.8
2009-09-18 07:10:28 51°15.843 2°51.134 308.6 11.5 299 11.8
2009-09-18 07:10:33 51°15.851 2°51.112 308.8 11.6 299 12.2
2009-09-18 07:10:38 51°15.859 2°51.089 309.6 11.5 301 12.2
2009-09-18 07:10:43 51°15.867 2°51.068 310.7 11.5 301 12
2009-09-18 07:10:48 51°15.875 2°51.046 310.4 11.5 300 11.9
2009-09-18 07:10:53 51°15.884 2°51.025 310.2 11.4 302 12
2009-09-18 07:10:58 51°15.892 2°51.003 310.1 11.5 300 12.3
2009-09-18 07:11:03 51°15.9 2°50.981 309.6 11.4 302 12.2
2009-09-18 07:11:08 51°15.908 2°50.96 310.2 11.3 302 12.1
2009-09-18 07:11:13 51°15.916 2°50.939 310.1 11.4 300 12.3
2009-09-18 07:11:18 51°15.924 2°50.917 309.5 11.3 301 12.2
2009-09-18 07:11:23 51°15.932 2°50.895 309.6 11.4 301 12.1
2009-09-18 07:11:28 51°15.941 2°50.875 311.3 11.2 306 11.9
2009-09-18 07:11:32 51°15.948 2°50.858 311.9 11.2 303 12
2009-09-18 07:11:38 51°15.959 2°50.834 312.7 11.2 307 12.3
2009-09-18 07:11:43 51°15.968 2°50.814 314.4 11.2 305 11.9
2009-09-18 07:11:48 51°15.977 2°50.794 314.5 11.2 305 12
2009-09-18 07:11:53 51°15.986 2°50.774 314.8 11.2 306 11.8
2009-09-18 07:11:58 51°15.995 2°50.753 315.1 11.3 303 11.5
2009-09-18 07:12:03 51°16.004 2°50.733 315.1 11.2 307 11.5
2009-09-18 07:12:08 51°16.013 2°50.713 316.1 11.2 305 11.2
2009-09-18 07:12:13 51°16.022 2°50.693 316.2 11.2 307 11.3
2009-09-18 07:12:18 51°16.032 2°50.673 316.5 11.2 305 10.8
2009-09-18 07:12:23 51°16.041 2°50.653 315.8 11.1 308 10.7
2009-09-18 07:12:28 51°16.05 2°50.634 316.1 11.2 307 10.7
2009-09-18 07:12:33 51°16.059 2°50.614 316.7 11.1 307 10.5
2009-09-18 07:12:38 51°16.069 2°50.595 317.2 11.1 308 9.9
2009-09-18 07:12:43 51°16.078 2°50.575 317.2 11 308 9.7
2009-09-18 07:12:48 51°16.087 2°50.556 317.1 11.1 308 9.4
2009-09-18 07:12:52 51°16.095 2°50.541 317.3 11 309 9.5
2009-09-18 07:12:58 51°16.106 2°50.518 317.5 10.9 310 9.1
2009-09-18 07:13:03 51°16.116 2°50.5 319.4 10.8 311 8.9
2009-09-18 07:13:08 51°16.126 2°50.481 319.8 10.9 309 8.9
2009-09-18 07:13:13 51°16.136 2°50.464 320.4 10.8 313 8.9
2009-09-18 07:13:18 51°16.146 2°50.447 322.1 10.8 312 8.9
2009-09-18 07:13:23 51°16.156 2°50.429 321.9 10.9 313 8.9
2009-09-18 07:13:28 51°16.167 2°50.412 322.6 10.8 315 8.7
2009-09-18 07:13:33 51°16.177 2°50.394 322.4 10.8 313 8.8
2009-09-18 07:13:38 51°16.188 2°50.377 322.8 10.8 315 9
2009-09-18 07:13:43 51°16.198 2°50.36 323.4 10.8 315 9
2009-09-18 07:13:48 51°16.209 2°50.342 322.8 10.9 313 9
2009-09-18 07:13:53 51°16.219 2°50.325 322.9 10.8 316 9
2009-09-18 07:13:58 51°16.23 2°50.308 323 10.9 314 9.3
2009-09-18 07:14:03 51°16.24 2°50.291 322.9 10.9 316 9.5
2009-09-18 07:14:08 51°16.251 2°50.274 323.1 10.9 314 9.6
2009-09-18 07:14:13 51°16.262 2°50.257 323.2 10.8 316 9.4
2009-09-18 07:14:18 51°16.273 2°50.241 324.5 10.9 316 9.7
2009-09-18 07:14:23 51°16.284 2°50.224 325.4 10.8 318 10.1
2009-09-18 07:14:28 51°16.295 2°50.208 325.8 10.8 317 10
2009-09-18 07:14:33 51°16.306 2°50.192 326.9 10.8 318 9.7
2009-09-18 07:14:38 51°16.317 2°50.176 326.7 10.8 318 10.1
2009-09-18 07:14:43 51°16.328 2°50.16 326.7 10.7 318 9.9
2009-09-18 07:14:48 51°16.339 2°50.144 327.1 10.7 318 10.2
2009-09-18 07:14:53 51°16.35 2°50.128 327.1 10.8 318 10.3
2009-09-18 07:14:58 51°16.362 2°50.113 327.5 10.8 320 10.3
2009-09-18 07:15:03 51°16.374 2°50.098 328.6 10.7 321 10.3
2009-09-18 07:15:08 51°16.386 2°50.084 330.6 10.7 324 10.2
2009-09-18 07:15:13 51°16.397 2°50.069 331.4 10.7 322 10.3
2009-09-18 07:15:18 51°16.409 2°50.056 332.2 10.6 325 10.2
2009-09-18 07:15:23 51°16.421 2°50.042 333.2 10.7 324 10.4
2009-09-18 07:15:28 51°16.434 2°50.029 334 10.6 326 10.4
2009-09-18 07:15:33 51°16.446 2°50.015 334.6 10.6 324 10.4
2009-09-18 07:15:38 51°16.458 2°50.003 335.1 10.6 327 10.6
2009-09-18 07:15:43 51°16.47 2°49.989 335.7 10.7 325 10.6
2009-09-18 07:15:48 51°16.482 2°49.976 335.4 10.6 327 10.3
2009-09-18 07:15:53 51°16.495 2°49.964 336.1 10.6 327 10.6
2009-09-18 07:15:58 51°16.507 2°49.951 336 10.7 327 10.7
2009-09-18 07:16:03 51°16.519 2°49.938 335.6 10.7 326 11.1
2009-09-18 07:16:08 51°16.532 2°49.925 335.6 10.7 327 11
2009-09-18 07:16:13 51°16.544 2°49.912 335.6 10.6 326 11
2009-09-18 07:16:18 51°16.557 2°49.899 335.7 10.7 327 11.3
2009-09-18 07:16:23 51°16.569 2°49.885 335.7 10.7 326 11.7
2009-09-18 07:16:28 51°16.581 2°49.872 335.7 10.7 326 11.8
2009-09-18 07:16:33 51°16.593 2°49.859 335.4 10.7 326 12.2
2009-09-18 07:16:38 51°16.605 2°49.845 335.3 10.7 326 12.2
2009-09-18 07:16:43 51°16.617 2°49.832 335.4 10.7 325 12.7
2009-09-18 07:16:48 51°16.629 2°49.818 335.4 10.7 326 13.3
2009-09-18 07:16:53 51°16.642 2°49.805 335.9 10.7 327 13.3
2009-09-18 07:16:58 51°16.655 2°49.792 336.2 10.7 328 13.2
2009-09-18 07:17:03 51°16.668 2°49.779 337.2 10.7 328 13.4
2009-09-18 07:17:08 51°16.68 2°49.766 337.5 10.8 327 13.5
2009-09-18 07:17:13 51°16.693 2°49.754 337.5 10.6 328 12.9
2009-09-18 07:17:18 51°16.705 2°49.742 338.2 10.6 328 12.7
2009-09-18 07:17:23 51°16.718 2°49.729 339 10.5 329 12.5
2009-09-18 07:17:28 51°16.73 2°49.717 338.9 10.5 328 11.6
2009-09-18 07:17:33 51°16.742 2°49.705 338.7 10.5 328 11.5
2009-09-18 07:17:38 51°16.755 2°49.693 339 10.4 329 11.1
2009-09-18 07:17:43 51°16.767 2°49.681 339.2 10.4 328 11.2
2009-09-18 07:17:48 51°16.779 2°49.669 339.5 10.3 329 11.3
2009-09-18 07:17:53 51°16.791 2°49.657 339.5 10.2 329 11.3
2009-09-18 07:17:58 51°16.804 2°49.646 339.7 10.2 330 11
2009-09-18 07:18:03 51°16.816 2°49.635 340.1 10.1 330 10.3
2009-09-18 07:18:08 51°16.828 2°49.622 339.9 10.1 328 10
2009-09-18 07:18:13 51°16.84 2°49.611 339.6 10.1 328 9.5
2009-09-18 07:18:18 51°16.852 2°49.599 338.8 10 328 9.3
2009-09-18 07:18:23 51°16.864 2°49.587 339 10 329 8.9
2009-09-18 07:18:28 51°16.876 2°49.576 339.6 10 328 8.8
2009-09-18 07:18:33 51°16.888 2°49.566 341 9.8 333 9
2009-09-18 07:18:38 51°16.9 2°49.555 342 9.9 331 8.9
2009-09-18 07:18:43 51°16.912 2°49.545 342.8 9.7 334 8.7
2009-09-18 07:18:48 51°16.924 2°49.536 343.9 9.8 333 8.6
2009-09-18 07:18:53 51°16.936 2°49.527 344.2 9.7 335 8.8
2009-09-18 07:18:58 51°16.949 2°49.518 345.5 9.8 335 9.3
2009-09-18 07:19:03 51°16.961 2°49.508 345.6 9.8 335 9.8
2009-09-18 07:19:08 51°16.973 2°49.5 346.1 9.8 336 9.8
2009-09-18 07:19:13 51°16.986 2°49.491 346.3 9.9 335 9.4
2009-09-18 07:19:18 51°16.998 2°49.482 346.3 9.8 335 9.2
2009-09-18 07:19:23 51°17.01 2°49.472 345.6 9.9 335 10.1
2009-09-18 07:19:28 51°17.022 2°49.463 345.4 9.9 333 10.1
2009-09-18 07:19:33 51°17.034 2°49.453 344.8 9.8 334 10
2009-09-18 07:19:38 51°17.046 2°49.443 344.8 9.9 333 9.9
2009-09-18 07:19:43 51°17.059 2°49.433 344.1 9.9 333 9.4
2009-09-18 07:19:48 51°17.071 2°49.422 343.8 10 331 8.7
2009-09-18 07:19:53 51°17.083 2°49.412 343.4 10 331 9.5
2009-09-18 07:19:58 51°17.095 2°49.401 343.5 10 330 9.9
2009-09-18 07:20:03 51°17.107 2°49.39 343.3 10 332 10.6
2009-09-18 07:20:08 51°17.119 2°49.38 344.4 10 333 11.1
2009-09-18 07:20:13 51°17.132 2°49.371 345 10 334 11
2009-09-18 07:20:18 51°17.144 2°49.36 344.8 10.1 332 11.1
2009-09-18 07:20:23 51°17.156 2°49.35 344.1 10 333 11
2009-09-18 07:20:28 51°17.169 2°49.34 344.3 10 332 11.3
2009-09-18 07:20:33 51°17.181 2°49.329 344.4 10 332 10.9
2009-09-18 07:20:38 51°17.193 2°49.319 344.1 10 332 11.2
2009-09-18 07:20:43 51°17.205 2°49.309 345 10 333 11.1
2009-09-18 07:20:48 51°17.218 2°49.299 345 10 333 11.2
2009-09-18 07:20:53 51°17.23 2°49.289 344.8 10 332 11.1
2009-09-18 07:20:58 51°17.243 2°49.278 344.7 10 332 11.1
2009-09-18 07:21:03 51°17.255 2°49.268 344.4 10.1 332 11.3
2009-09-18 07:21:08 51°17.267 2°49.257 344.1 10.1 332 11.5
2009-09-18 07:21:13 51°17.28 2°49.247 343.8 10.1 331 11
2009-09-18 07:21:18 51°17.292 2°49.236 343.4 10 332 11.2
2009-09-18 07:21:23 51°17.304 2°49.225 343.7 10.2 330 11.6
2009-09-18 07:21:28 51°17.317 2°49.214 343.4 10.2 332 11.5
2009-09-18 07:21:33 51°17.329 2°49.203 343.4 10.2 331 11.4
2009-09-18 07:21:38 51°17.342 2°49.193 343.1 10.2 332 11.9
2009-09-18 07:21:43 51°17.354 2°49.182 343.2 10.2 331 11.6
2009-09-18 07:21:48 51°17.367 2°49.172 344.1 10.2 334 12
2009-09-18 07:21:53 51°17.379 2°49.161 344.5 10.2 331 11.5
2009-09-18 07:21:58 51°17.392 2°49.15 343.6 10.2 332 11.5
2009-09-18 07:22:03 51°17.405 2°49.139 343.4 10.3 331 11.1
2009-09-18 07:22:08 51°17.417 2°49.128 343.4 10.2 332 11.3
2009-09-18 07:22:13 51°17.43 2°49.117 343.3 10.2 331 11.4
2009-09-18 07:22:18 51°17.442 2°49.107 343.4 10.3 331 11.4
2009-09-18 07:22:23 51°17.455 2°49.095 343.3 10.3 332 11.2
2009-09-18 07:22:28 51°17.467 2°49.085 343.8 10.2 332 11.2
2009-09-18 07:22:33 51°17.48 2°49.074 343.7 10.3 330 11.5
2009-09-18 07:22:38 51°17.492 2°49.063 343.3 10.2 331 11.1
2009-09-18 07:22:43 51°17.505 2°49.052 343.3 10.1 331 11.1
2009-09-18 07:22:48 51°17.517 2°49.041 343.5 10.2 331 9.8
2009-09-18 07:22:53 51°17.53 2°49.029 343 10.3 330 10
2009-09-18 07:22:58 51°17.543 2°49.018 342.7 10.3 330 10.1
2009-09-18 07:23:03 51°17.555 2°49.007 342.7 10.2 331 10
2009-09-18 07:23:08 51°17.568 2°48.996 343.1 10.2 331 10
2009-09-18 07:23:13 51°17.58 2°48.985 343.1 10.2 330 10.3
2009-09-18 07:23:18 51°17.592 2°48.974 343.4 10.2 331 9.9
2009-09-18 07:23:23 51°17.604 2°48.963 343.4 10.3 330 10.2
2009-09-18 07:23:28 51°17.616 2°48.952 343 10.1 331 10.2
2009-09-18 07:23:33 51°17.629 2°48.941 343.9 10.2 331 9.9
2009-09-18 07:23:38 51°17.641 2°48.93 343.6 10.2 331 10.2
2009-09-18 07:23:43 51°17.654 2°48.919 343.4 10.3 331 10.7
2009-09-18 07:23:48 51°17.667 2°48.909 343.5 10.3 332 10.8
2009-09-18 07:23:52 51°17.677 2°48.9 343.9 10.4 332 11.2
2009-09-18 07:23:58 51°17.692 2°48.888 343.9 10.4 333 11.3
2009-09-18 07:24:03 51°17.705 2°48.876 343.6 10.5 331 11.3
2009-09-18 07:24:08 51°17.718 2°48.866 343.4 10.4 332 11
2009-09-18 07:24:13 51°17.731 2°48.855 343.6 10.4 334 11.1
2009-09-18 07:24:18 51°17.744 2°48.845 344.7 10.5 333 11.2
2009-09-18 07:24:23 51°17.757 2°48.834 343.5 10.6 332 10.6
2009-09-18 07:24:28 51°17.769 2°48.824 343.5 10.4 333 10.5
2009-09-18 07:24:33 51°17.782 2°48.813 343.4 10.5 333 10.3
2009-09-18 07:24:38 51°17.795 2°48.803 343.6 10.4 333 9.9
2009-09-18 07:24:43 51°17.808 2°48.792 343.5 10.5 333 10.3
2009-09-18 07:24:48 51°17.821 2°48.781 343.3 10.4 332 9.8
2009-09-18 07:24:53 51°17.834 2°48.771 343.2 10.4 334 10
2009-09-18 07:24:58 51°17.847 2°48.761 343.7 10.5 333 10
2009-09-18 07:25:03 51°17.86 2°48.75 343.1 10.5 333 9.7
2009-09-18 07:25:08 51°17.873 2°48.74 343.3 10.5 333 9.7
2009-09-18 07:25:13 51°17.886 2°48.729 344.1 10.5 334 9.6
2009-09-18 07:25:18 51°17.899 2°48.719 343.9 10.4 334 9.5
2009-09-18 07:25:23 51°17.912 2°48.709 343.5 10.7 334 10.1
2009-09-18 07:25:28 51°17.925 2°48.699 344.1 10.6 334 9.7
2009-09-18 07:25:33 51°17.938 2°48.688 344.7 10.4 334 9.6
2009-09-18 07:25:38 51°17.951 2°48.677 343.8 10.5 332 9.3
2009-09-18 07:25:43 51°17.964 2°48.667 343 10.5 334 9.6
2009-09-18 07:25:48 51°17.977 2°48.657 343.7 10.5 333 10.2
2009-09-18 07:25:53 51°17.99 2°48.646 343.4 10.5 332 9.5
2009-09-18 07:25:58 51°18.002 2°48.635 343.1 10.5 333 9.6
2009-09-18 07:26:03 51°18.015 2°48.625 342.8 10.6 333 9.6
2009-09-18 07:26:08 51°18.028 2°48.613 342.4 10.8 330 9.4
2009-09-18 07:26:13 51°18.041 2°48.602 341.2 10.7 332 9.4
2009-09-18 07:26:18 51°18.054 2°48.591 341.2 10.7 331 9.6
2009-09-18 07:26:23 51°18.067 2°48.579 341 10.8 331 9.9
2009-09-18 07:26:28 51°18.08 2°48.567 340.7 10.8 330 9.8
2009-09-18 07:26:32 51°18.09 2°48.558 340.3 10.7 330 9.6
2009-09-18 07:26:38 51°18.105 2°48.544 340 10.8 330 10
2009-09-18 07:26:43 51°18.119 2°48.532 340.3 10.8 330 10
2009-09-18 07:26:48 51°18.131 2°48.52 340 10.8 329 10.4
2009-09-18 07:26:53 51°18.144 2°48.508 339.8 10.7 330 9.8
2009-09-18 07:26:58 51°18.157 2°48.496 339.7 10.8 330 10.1
2009-09-18 07:27:03 51°18.17 2°48.484 339.4 10.9 330 10.3
2009-09-18 07:27:08 51°18.183 2°48.472 339.7 10.9 329 9.7
2009-09-18 07:27:13 51°18.196 2°48.46 339.6 10.8 330 9.7
2009-09-18 07:27:18 51°18.209 2°48.448 339.6 10.8 330 9.8
2009-09-18 07:27:24 51°18.225 2°48.434 340.1 10.7 330 9
2009-09-18 07:27:28 51°18.235 2°48.425 339.8 10.8 330 9
2009-09-18 07:27:33 51°18.248 2°48.413 339.8 10.8 330 8.7
2009-09-18 07:27:38 51°18.261 2°48.401 339.7 10.8 330 9.5
2009-09-18 07:27:43 51°18.274 2°48.389 339.8 10.8 331 9.7
2009-09-18 07:27:48 51°18.287 2°48.378 339.8 10.9 331 9.8
2009-09-18 07:27:53 51°18.3 2°48.366 339.8 10.9 331 10.1
2009-09-18 07:27:58 51°18.313 2°48.354 339.8 11 331 10.4
2009-09-18 07:28:03 51°18.326 2°48.342 339.8 10.9 331 10
2009-09-18 07:28:08 51°18.339 2°48.33 339.9 10.9 330 10.2
2009-09-18 07:28:13 51°18.353 2°48.318 340.1 10.9 331 10
2009-09-18 07:28:18 51°18.366 2°48.306 339.7 10.9 331 10.2
2009-09-18 07:28:23 51°18.379 2°48.295 340.2 10.9 332 10.4
2009-09-18 07:28:28 51°18.392 2°48.283 340.6 10.9 331 10.6
2009-09-18 07:28:33 51°18.405 2°48.272 340.5 10.9 331 10.8
2009-09-18 07:28:38 51°18.418 2°48.26 340.9 10.9 332 11.2
2009-09-18 07:28:43 51°18.432 2°48.249 340.7 10.9 330 10.9
2009-09-18 07:28:48 51°18.445 2°48.237 340.3 10.9 330 11.4
2009-09-18 07:28:53 51°18.458 2°48.225 339.2 10.9 329 11.8
2009-09-18 07:28:58 51°18.471 2°48.212 339 11 330 12
2009-09-18 07:29:03 51°18.484 2°48.2 339.4 10.8 328 11.5
2009-09-18 07:29:08 51°18.496 2°48.187 338.3 10.8 327 12.3
2009-09-18 07:29:13 51°18.509 2°48.174 337.3 10.8 329 12.4
2009-09-18 07:29:18 51°18.522 2°48.162 338.3 10.8 327 12.3
2009-09-18 07:29:23 51°18.534 2°48.148 337.9 10.9 328 12.7
2009-09-18 07:29:28 51°18.547 2°48.135 337.5 10.9 328 12.9
2009-09-18 07:29:33 51°18.56 2°48.122 338 10.9 327 12.8
2009-09-18 07:29:38 51°18.572 2°48.109 338.1 10.9 328 13
2009-09-18 07:29:43 51°18.585 2°48.096 338.2 11 327 13.3
2009-09-18 07:29:48 51°18.597 2°48.083 337.4 11 326 13.4
2009-09-18 07:29:53 51°18.61 2°48.069 337 10.9 327 13.5
2009-09-18 07:29:58 51°18.623 2°48.055 336.9 11 325 13.6
2009-09-18 07:30:03 51°18.635 2°48.042 336.7 10.9 327 13.6
2009-09-18 07:30:08 51°18.647 2°48.028 336.8 10.9 325 13.6
2009-09-18 07:30:13 51°18.66 2°48.014 336.8 10.9 325 14
2009-09-18 07:30:18 51°18.672 2°48 336.9 11 325 13.8
2009-09-18 07:30:23 51°18.685 2°47.987 336.7 10.9 325 13.9
2009-09-18 07:30:28 51°18.697 2°47.973 336.8 10.9 325 14.4
2009-09-18 07:30:33 51°18.709 2°47.959 336.5 11 325 14.5
2009-09-18 07:30:38 51°18.721 2°47.945 336.7 10.8 326 14.4
2009-09-18 07:30:43 51°18.734 2°47.932 337.2 10.8 325 14.3
2009-09-18 07:30:48 51°18.746 2°47.918 337.2 10.8 325 14.6
2009-09-18 07:30:53 51°18.758 2°47.904 336.9 10.9 324 15.2
2009-09-18 07:30:58 51°18.771 2°47.891 337 10.8 325 14.7
2009-09-18 07:31:03 51°18.783 2°47.876 336.5 10.9 323 15
2009-09-18 07:31:08 51°18.795 2°47.862 336.3 10.8 325 15.2
2009-09-18 07:31:13 51°18.807 2°47.849 337.1 10.9 324 15.5
2009-09-18 07:31:18 51°18.819 2°47.835 336.9 10.8 325 15.3
2009-09-18 07:31:23 51°18.831 2°47.82 336.7 10.8 324 15.8
2009-09-18 07:31:28 51°18.843 2°47.807 336.5 10.8 324 16.6
2009-09-18 07:31:33 51°18.855 2°47.792 336.8 10.8 324 16.6
2009-09-18 07:31:38 51°18.868 2°47.779 336.9 10.8 325 17
2009-09-18 07:31:43 51°18.88 2°47.765 337.2 10.9 323 17.4
2009-09-18 07:31:48 51°18.892 2°47.75 336.7 10.9 324 17.4
2009-09-18 07:31:53 51°18.904 2°47.736 336.7 11 324 17.1
2009-09-18 07:31:58 51°18.916 2°47.722 336.3 10.8 324 17.3
2009-09-18 07:32:03 51°18.929 2°47.708 336.2 10.9 323 17.5
2009-09-18 07:32:08 51°18.94 2°47.693 336.4 10.9 323 18
2009-09-18 07:32:13 51°18.953 2°47.679 336.6 11 324 17.9
2009-09-18 07:32:18 51°18.965 2°47.664 337 10.9 325 17.7
2009-09-18 07:32:23 51°18.978 2°47.651 337.8 10.9 324 17.5
2009-09-18 07:32:28 51°18.989 2°47.636 337.5 10.9 323 18.2
2009-09-18 07:32:33 51°19.002 2°47.622 337.2 10.8 324 17.9
2009-09-18 07:32:38 51°19.014 2°47.608 337.1 10.8 324 18.1
2009-09-18 07:32:43 51°19.026 2°47.593 337.1 10.8 324 18.6
2009-09-18 07:32:48 51°19.038 2°47.579 337.7 10.7 324 18.4
2009-09-18 07:32:53 51°19.05 2°47.565 337.4 10.9 323 19.2
2009-09-18 07:32:58 51°19.062 2°47.551 337.2 10.8 324 19.1
2009-09-18 07:33:03 51°19.074 2°47.536 337.3 10.7 324 19.1
2009-09-18 07:33:08 51°19.086 2°47.522 337.8 10.8 324 18.8
2009-09-18 07:33:13 51°19.098 2°47.508 337 10.7 323 19.3
2009-09-18 07:33:18 51°19.11 2°47.494 336.8 10.7 325 19.4
2009-09-18 07:33:23 51°19.122 2°47.48 337.4 10.8 324 19.5
2009-09-18 07:33:28 51°19.134 2°47.466 337.4 10.8 324 19.9
2009-09-18 07:33:33 51°19.147 2°47.452 337.6 10.8 324 19.7
2009-09-18 07:33:38 51°19.159 2°47.438 337.6 10.7 324 19.6
2009-09-18 07:33:43 51°19.171 2°47.424 337.8 10.8 324 20.5
2009-09-18 07:33:48 51°19.183 2°47.41 337.6 10.8 323 20.4
2009-09-18 07:33:53 51°19.195 2°47.396 337.1 10.7 324 20.2
2009-09-18 07:33:58 51°19.207 2°47.382 337.3 10.8 323 20.4
2009-09-18 07:34:03 51°19.219 2°47.368 337.3 10.7 325 20
2009-09-18 07:34:08 51°19.231 2°47.354 337.5 10.8 324 20.3
2009-09-18 07:34:13 51°19.243 2°47.34 337.1 10.8 324 20.5
2009-09-18 07:34:18 51°19.255 2°47.326 337.5 10.8 325 20.3
2009-09-18 07:34:23 51°19.267 2°47.311 336.9 10.9 323 20.6
2009-09-18 07:34:28 51°19.279 2°47.297 336.9 10.9 323 20.8
2009-09-18 07:34:33 51°19.291 2°47.283 337.4 10.9 324 20.5
2009-09-18 07:34:38 51°19.304 2°47.269 336.9 10.8 324 20.5
2009-09-18 07:34:43 51°19.316 2°47.255 337.6 10.8 325 20.7
2009-09-18 07:34:48 51°19.328 2°47.241 337.6 10.9 324 20.7
2009-09-18 07:34:53 51°19.341 2°47.227 337.6 10.8 326 20.5
2009-09-18 07:34:58 51°19.353 2°47.213 338 10.9 324 20.5
2009-09-18 07:35:03 51°19.365 2°47.199 337.5 10.9 324 21
2009-09-18 07:35:08 51°19.377 2°47.184 337.5 10.9 324 20.9
2009-09-18 07:35:13 51°19.389 2°47.17 337.6 10.9 324 21.1
2009-09-18 07:35:18 51°19.402 2°47.156 338.1 10.8 324 20.9
2009-09-18 07:35:23 51°19.414 2°47.142 337.8 10.8 323 20.5
2009-09-18 07:35:28 51°19.426 2°47.129 337.1 10.8 324 20.9
2009-09-18 07:35:33 51°19.438 2°47.114 337.2 10.6 323 20.6
2009-09-18 07:35:38 51°19.45 2°47.1 337.4 10.8 323 21.2
2009-09-18 07:35:43 51°19.462 2°47.086 337.6 10.8 323 21.2
2009-09-18 07:35:48 51°19.473 2°47.072 337.6 10.7 323 21
2009-09-18 07:35:53 51°19.485 2°47.058 337.3 10.8 324 21
2009-09-18 07:35:58 51°19.498 2°47.044 337.5 10.8 324 21
2009-09-18 07:36:03 51°19.51 2°47.03 337.3 10.8 323 20.6
2009-09-18 07:36:08 51°19.522 2°47.016 337.1 10.9 324 20.6
2009-09-18 07:36:13 51°19.535 2°47.001 337.2 10.8 324 20.5
2009-09-18 07:36:18 51°19.547 2°46.987 336.8 10.8 325 20.8
2009-09-18 07:36:23 51°19.559 2°46.973 337.6 10.9 324 20.8
2009-09-18 07:36:28 51°19.572 2°46.959 337.2 10.9 324 20.7
2009-09-18 07:36:33 51°19.584 2°46.945 337.2 10.9 325 20.5
2009-09-18 07:36:38 51°19.596 2°46.931 337.4 10.9 324 20.4
2009-09-18 07:36:43 51°19.608 2°46.917 337.2 10.9 324 20.4
2009-09-18 07:36:48 51°19.62 2°46.903 337.6 10.8 325 20.4
2009-09-18 07:36:53 51°19.632 2°46.889 337.7 11 323 20.9
2009-09-18 07:36:58 51°19.645 2°46.875 336.9 10.8 325 20.5
2009-09-18 07:37:03 51°19.657 2°46.861 337.2 10.9 324 20.2
2009-09-18 07:37:08 51°19.669 2°46.847 337.4 10.8 324 20.5
2009-09-18 07:37:13 51°19.681 2°46.833 337.9 10.8 324 20
2009-09-18 07:37:18 51°19.693 2°46.819 337.6 10.8 324 20
2009-09-18 07:37:23 51°19.705 2°46.805 336.9 10.8 324 20
2009-09-18 07:37:28 51°19.717 2°46.791 337.2 10.8 324 20
2009-09-18 07:37:33 51°19.73 2°46.777 337.6 10.8 325 19
2009-09-18 07:37:38 51°19.742 2°46.764 337.9 10.8 324 18.8
2009-09-18 07:37:43 51°19.754 2°46.75 337.6 10.9 325 18.7
2009-09-18 07:37:48 51°19.766 2°46.736 337.7 10.9 325 18.3
2009-09-18 07:37:53 51°19.779 2°46.722 337.7 10.9 324 17.7
2009-09-18 07:37:58 51°19.791 2°46.708 336.9 10.9 324 17.9
2009-09-18 07:38:03 51°19.803 2°46.694 336.9 10.9 325 18
2009-09-18 07:38:08 51°19.816 2°46.68 337.6 11 326 18
2009-09-18 07:38:13 51°19.828 2°46.667 338 10.9 325 17.5
2009-09-18 07:38:18 51°19.841 2°46.653 337.8 10.9 325 17.4
2009-09-18 07:38:23 51°19.853 2°46.639 337.5 11 325 16.3
2009-09-18 07:38:28 51°19.866 2°46.625 337.8 11 325 16.8
2009-09-18 07:38:33 51°19.878 2°46.612 338.5 10.8 326 16.9
2009-09-18 07:38:38 51°19.891 2°46.599 338.2 10.8 325 17.5
2009-09-18 07:38:43 51°19.903 2°46.585 338.2 10.8 326 17.1
2009-09-18 07:38:48 51°19.916 2°46.572 337.6 10.8 326 16.5
2009-09-18 07:38:53 51°19.928 2°46.558 337.9 10.9 325 15.7
2009-09-18 07:38:58 51°19.941 2°46.544 337.6 10.9 326 16.1
2009-09-18 07:39:03 51°19.953 2°46.531 337.5 11 324 16
2009-09-18 07:39:08 51°19.966 2°46.517 338 10.8 327 16.4
2009-09-18 07:39:13 51°19.978 2°46.503 337.6 11 324 15.6
2009-09-18 07:39:18 51°19.99 2°46.489 336.9 10.8 327 15.5
2009-09-18 07:39:23 51°20.003 2°46.477 338.6 10.7 327 15.6
2009-09-18 07:39:28 51°20.016 2°46.464 339.3 10.7 327 14.4
2009-09-18 07:39:33 51°20.028 2°46.45 338.7 10.9 326 13
2009-09-18 07:39:38 51°20.041 2°46.437 339 10.8 329 13.8
2009-09-18 07:39:43 51°20.054 2°46.425 339.8 10.9 327 14.1
2009-09-18 07:39:48 51°20.067 2°46.412 339.8 10.8 329 14.7
2009-09-18 07:39:53 51°20.08 2°46.401 340.5 10.8 330 14.6
2009-09-18 07:39:58 51°20.093 2°46.389 341 10.9 330 14.4
2009-09-18 07:40:03 51°20.106 2°46.377 341.4 10.9 330 14.4
2009-09-18 07:40:08 51°20.119 2°46.365 341.8 10.9 330 13.7
2009-09-18 07:40:13 51°20.132 2°46.353 341.3 10.7 331 13.7
2009-09-18 07:40:18 51°20.145 2°46.341 341.5 10.8 330 13.9
2009-09-18 07:40:23 51°20.158 2°46.33 341.8 10.8 331 15
2009-09-18 07:40:28 51°20.171 2°46.318 342 10.7 331 14.9
2009-09-18 07:40:33 51°20.185 2°46.307 343 10.7 332 15
2009-09-18 07:40:38 51°20.198 2°46.296 343.1 10.8 331 15.3
2009-09-18 07:40:43 51°20.211 2°46.284 342.5 10.8 332 15.1
2009-09-18 07:40:48 51°20.224 2°46.273 343.2 10.8 332 14.6
2009-09-18 07:40:53 51°20.237 2°46.262 343.8 10.9 331 14.3
2009-09-18 07:40:58 51°20.251 2°46.249 343.1 10.8 331 15.1
2009-09-18 07:41:04 51°20.266 2°46.236 342.7 10.7 330 14.9
2009-09-18 07:41:08 51°20.277 2°46.226 342.8 10.8 331 15.1
2009-09-18 07:41:13 51°20.29 2°46.215 342.8 11 332 15.3
2009-09-18 07:41:18 51°20.303 2°46.203 342.8 10.8 332 15.5
2009-09-18 07:41:23 51°20.317 2°46.192 343.1 10.9 331 15.3
2009-09-18 07:41:28 51°20.33 2°46.18 342.3 11 331 15.3
2009-09-18 07:41:32 51°20.34 2°46.171 342.5 10.9 331 15.7
2009-09-18 07:41:38 51°20.356 2°46.157 342.7 10.9 330 15.9
2009-09-18 07:41:43 51°20.369 2°46.145 341.9 10.9 331 16.4
2009-09-18 07:41:48 51°20.383 2°46.134 342.5 10.9 331 17.4
2009-09-18 07:41:53 51°20.396 2°46.122 343 10.8 332 17.8
2009-09-18 07:41:58 51°20.409 2°46.111 343.1 10.9 331 18.7
2009-09-18 07:42:03 51°20.422 2°46.099 342.7 11.1 331 19
2009-09-18 07:42:08 51°20.435 2°46.087 342.4 11 331 19.3
2009-09-18 07:42:13 51°20.448 2°46.075 342 10.9 331 19.7
2009-09-18 07:42:18 51°20.462 2°46.064 342.2 10.9 331 19.9
2009-09-18 07:42:23 51°20.475 2°46.052 341.9 11 331 20.5
2009-09-18 07:42:28 51°20.488 2°46.041 341.9 11 333 20.6
2009-09-18 07:42:33 51°20.502 2°46.029 342.5 11 331 21.1
2009-09-18 07:42:38 51°20.515 2°46.016 341.9 11.1 330 21.2
2009-09-18 07:42:43 51°20.528 2°46.005 342.6 10.8 332 21.4
2009-09-18 07:42:48 51°20.541 2°45.993 342.6 10.9 329 22.3
2009-09-18 07:42:52 51°20.551 2°45.984 341.9 10.6 332 21.9
2009-09-18 07:42:58 51°20.567 2°45.97 342.7 10.9 330 22.4
2009-09-18 07:43:03 51°20.58 2°45.958 342.4 10.9 331 22.5
2009-09-18 07:43:08 51°20.593 2°45.947 342.4 10.8 331 22.3
2009-09-18 07:43:13 51°20.606 2°45.935 342.9 10.7 331 22
2009-09-18 07:43:18 51°20.619 2°45.924 342.4 10.8 331 21.6
2009-09-18 07:43:23 51°20.632 2°45.912 342.1 10.9 331 21.4
2009-09-18 07:43:28 51°20.645 2°45.9 342.1 10.8 331 22.4
2009-09-18 07:43:33 51°20.659 2°45.889 342.1 10.9 331 21.9
2009-09-18 07:43:38 51°20.672 2°45.877 341.9 10.9 331 23
2009-09-18 07:43:43 51°20.685 2°45.866 342.1 10.9 332 23.9
2009-09-18 07:43:48 51°20.698 2°45.853 341.7 10.9 330 24.1
2009-09-18 07:43:53 51°20.711 2°45.842 341.9 10.9 332 23.8
2009-09-18 07:43:58 51°20.725 2°45.83 342.7 11 331 22.5
2009-09-18 07:44:04 51°20.74 2°45.816 342.6 10.8 331 22.1
2009-09-18 07:44:09 51°20.754 2°45.804 342.6 10.9 331 22.2
2009-09-18 07:44:12 51°20.761 2°45.797 342.1 11.1 329 22.3
2009-09-18 07:44:18 51°20.777 2°45.783 342.2 10.7 332 21.6
2009-09-18 07:44:24 51°20.793 2°45.769 343 10.9 331 21.4
2009-09-18 07:44:28 51°20.804 2°45.76 342.9 10.9 330 22.4
2009-09-18 07:44:33 51°20.817 2°45.748 342 10.9 331 23.5
2009-09-18 07:44:37 51°20.828 2°45.739 342.5 11 332 23.2
2009-09-18 07:44:43 51°20.844 2°45.725 342.7 11 333 23.3
2009-09-18 07:44:48 51°20.857 2°45.713 343.4 10.8 332 23.7
2009-09-18 07:44:53 51°20.87 2°45.702 343.1 10.9 331 24.1
2009-09-18 07:44:58 51°20.883 2°45.691 342.3 10.8 332 24.5
2009-09-18 07:45:03 51°20.896 2°45.679 343.3 10.9 331 24.6
2009-09-18 07:45:08 51°20.91 2°45.668 342.6 11 333 24.6
2009-09-18 07:45:13 51°20.923 2°45.656 342.7 10.9 331 25
2009-09-18 07:45:17 51°20.934 2°45.647 342.5 10.8 330 25.5
2009-09-18 07:45:24 51°20.952 2°45.63 341.9 10.9 329 25.5
2009-09-18 07:45:29 51°20.965 2°45.618 341.6 10.8 331 25.5
2009-09-18 07:45:34 51°20.978 2°45.607 342.2 10.9 332 25.6
2009-09-18 07:45:38 51°20.988 2°45.598 342.7 10.9 331 25.6
2009-09-18 07:45:43 51°21.002 2°45.586 341.9 11 331 25.7
2009-09-18 07:45:49 51°21.017 2°45.572 342.2 11 330 25.7
2009-09-18 07:45:54 51°21.03 2°45.56 341.5 10.9 331 25.9
2009-09-18 07:45:58 51°21.041 2°45.55 341.8 11 329 26.2
2009-09-18 07:46:03 51°21.054 2°45.538 342.3 10.9 330 25.7
2009-09-18 07:46:08 51°21.067 2°45.526 341.7 10.9 332 25.8
2009-09-18 07:46:13 51°21.081 2°45.515 342.4 10.8 330 25.6
2009-09-18 07:46:18 51°21.094 2°45.503 342.4 10.8 331 25.6
2009-09-18 07:46:23 51°21.107 2°45.491 341.9 10.8 331 25
2009-09-18 07:46:28 51°21.119 2°45.48 342.2 10.7 331 25.6
2009-09-18 07:46:33 51°21.132 2°45.467 342 10.9 330 25.5
2009-09-18 07:46:38 51°21.145 2°45.455 341.4 10.9 330 25.6
2009-09-18 07:46:43 51°21.159 2°45.443 341.9 10.9 330 25.6
2009-09-18 07:46:48 51°21.171 2°45.431 341.9 11 330 25.5
2009-09-18 07:46:53 51°21.185 2°45.42 342.4 10.6 333 25.5
2009-09-18 07:46:58 51°21.198 2°45.409 343.2 10.8 331 25.6
2009-09-18 07:47:03 51°21.211 2°45.397 342.4 10.7 331 25.5
2009-09-18 07:47:08 51°21.224 2°45.386 342.5 10.7 331 25.6
2009-09-18 07:47:13 51°21.237 2°45.374 342.7 10.8 332 25.6
2009-09-18 07:47:18 51°21.25 2°45.362 342.7 10.8 331 25.6
2009-09-18 07:47:23 51°21.264 2°45.351 342.4 10.8 331 25.2
2009-09-18 07:47:27 51°21.274 2°45.341 342.3 10.9 330 25.3
2009-09-18 07:47:33 51°21.29 2°45.328 342.7 10.8 333 25.2
2009-09-18 07:47:37 51°21.3 2°45.318 342.4 10.8 329 25.1
2009-09-18 07:47:43 51°21.315 2°45.304 342 10.6 331 25.4
2009-09-18 07:47:48 51°21.328 2°45.292 342.5 10.8 330 25.3
2009-09-18 07:47:53 51°21.341 2°45.281 342.5 10.7 331 25
2009-09-18 07:47:57 51°21.352 2°45.272 342 10.9 330 25
2009-09-18 07:48:02 51°21.365 2°45.26 342.4 10.8 331 24.7
2009-09-18 07:48:08 51°21.381 2°45.246 342.4 10.8 330 24.7
2009-09-18 07:48:13 51°21.394 2°45.234 342.3 10.8 330 25
2009-09-18 07:48:18 51°21.407 2°45.222 341.7 10.8 331 24.2
2009-09-18 07:48:22 51°21.417 2°45.214 342.7 10.8 333 24.2
2009-09-18 07:48:28 51°21.433 2°45.2 342.9 10.7 332 24.1
2009-09-18 07:48:33 51°21.446 2°45.189 343.2 10.7 333 23.9
2009-09-18 07:48:38 51°21.459 2°45.177 343.4 10.8 331 23.5
2009-09-18 07:48:43 51°21.472 2°45.166 342.8 10.8 331 24
2009-09-18 07:48:48 51°21.485 2°45.154 342.4 10.8 331 23.7
2009-09-18 07:48:53 51°21.498 2°45.143 342 10.8 331 23.5
2009-09-18 07:48:58 51°21.512 2°45.132 342.3 10.8 332 23.5
2009-09-18 07:49:03 51°21.525 2°45.12 342.5 10.7 331 22.8
2009-09-18 07:49:07 51°21.535 2°45.111 342 10.7 331 23.6
2009-09-18 07:49:13 51°21.55 2°45.097 342.6 10.7 331 23.1
2009-09-18 07:49:18 51°21.563 2°45.086 342.7 10.7 331 22.5
2009-09-18 07:49:23 51°21.576 2°45.075 342.1 10.7 332 22.7
2009-09-18 07:49:28 51°21.589 2°45.064 342.4 10.6 333 22.5
2009-09-18 07:49:33 51°21.602 2°45.053 342.8 10.7 332 22.6
2009-09-18 07:49:38 51°21.615 2°45.041 342.5 10.6 331 22.6
2009-09-18 07:49:43 51°21.629 2°45.031 342.2 10.6 333 22.4
2009-09-18 07:49:48 51°21.642 2°45.02 343.4 10.8 332 22.4
2009-09-18 07:49:53 51°21.655 2°45.009 343.2 10.8 330 22.2
2009-09-18 07:49:57 51°21.665 2°44.999 341.9 10.7 332 22.4
2009-09-18 07:50:03 51°21.681 2°44.986 342.5 10.7 332 22.3
2009-09-18 07:50:08 51°21.694 2°44.975 343.1 10.6 332 22.3
2009-09-18 07:50:13 51°21.707 2°44.963 342.2 10.8 330 22.5
2009-09-18 07:50:18 51°21.72 2°44.952 342.1 10.6 334 22
2009-09-18 07:50:22 51°21.731 2°44.943 342.8 10.6 331 21.7
2009-09-18 07:50:27 51°21.743 2°44.932 342.7 10.6 331 22.2
2009-09-18 07:50:33 51°21.759 2°44.918 341.8 10.7 330 22.2
2009-09-18 07:50:38 51°21.772 2°44.907 342 10.6 333 21.9
2009-09-18 07:50:42 51°21.782 2°44.898 342.3 10.7 331 21.7
2009-09-18 07:50:47 51°21.795 2°44.887 342.7 10.5 332 21.7
2009-09-18 07:50:53 51°21.81 2°44.873 342.2 10.6 332 22
2009-09-18 07:50:58 51°21.824 2°44.862 342 10.6 332 21.6
2009-09-18 07:51:02 51°21.834 2°44.853 342.1 10.7 330 21.7
2009-09-18 07:51:08 51°21.849 2°44.839 341.7 10.5 331 21.5
2009-09-18 07:51:13 51°21.861 2°44.827 341.2 10.7 330 21.3
2009-09-18 07:51:18 51°21.875 2°44.817 343.1 10.5 333 19.9
2009-09-18 07:51:23 51°21.887 2°44.804 341.9 10.4 328 20.4
2009-09-18 07:51:28 51°21.899 2°44.793 341.4 10.5 331 21.9
2009-09-18 07:51:33 51°21.912 2°44.782 342 10.5 330 21.7
2009-09-18 07:51:38 51°21.925 2°44.771 342.1 10.5 332 20.9
2009-09-18 07:51:43 51°21.938 2°44.76 342.4 10.4 331 21.4
2009-09-18 07:51:48 51°21.95 2°44.748 342.7 10.6 328 21.9
2009-09-18 07:51:53 51°21.963 2°44.736 341.6 10.4 331 21.3
2009-09-18 07:51:58 51°21.975 2°44.725 342.5 10.6 331 21.8
2009-09-18 07:52:03 51°21.988 2°44.713 342.1 10.4 329 21.3
2009-09-18 07:52:08 51°22 2°44.702 341.7 10.5 330 22.3
2009-09-18 07:52:13 51°22.013 2°44.691 341.9 10.4 331 22.5
2009-09-18 07:52:18 51°22.026 2°44.679 342.1 10.5 330 22.5
2009-09-18 07:52:23 51°22.038 2°44.668 342.3 10.5 332 22.8
2009-09-18 07:52:28 51°22.051 2°44.657 342.7 10.5 331 22.8
2009-09-18 07:52:33 51°22.064 2°44.646 342.4 10.6 331 22.7
2009-09-18 07:52:37 51°22.074 2°44.637 341.9 10.6 331 22.9
2009-09-18 07:52:42 51°22.087 2°44.625 341.7 10.7 331 22.8
2009-09-18 07:52:48 51°22.103 2°44.612 341.9 10.8 330 21.2
2009-09-18 07:52:53 51°22.116 2°44.6 341.6 10.7 330 22.7
2009-09-18 07:52:58 51°22.128 2°44.588 341 10.7 329 23.3
2009-09-18 07:53:02 51°22.138 2°44.579 341.4 10.6 332 23.5
2009-09-18 07:53:08 51°22.154 2°44.565 342.2 10.7 330 23.5
2009-09-18 07:53:13 51°22.167 2°44.554 342 10.5 332 23.2
2009-09-18 07:53:18 51°22.18 2°44.543 342.5 10.6 331 22.1
2009-09-18 07:53:23 51°22.193 2°44.531 342 10.6 330 23.5
2009-09-18 07:53:28 51°22.206 2°44.52 342.1 10.5 330 23.8
2009-09-18 07:53:33 51°22.218 2°44.508 342.4 10.5 331 24.7
2009-09-18 07:53:38 51°22.231 2°44.497 342.7 10.6 331 24.6
2009-09-18 07:53:43 51°22.244 2°44.486 342.6 10.5 330 23.8
2009-09-18 07:53:48 51°22.257 2°44.475 342.7 10.5 332 24.3
2009-09-18 07:53:53 51°22.27 2°44.463 342.7 10.5 331 24
2009-09-18 07:53:58 51°22.283 2°44.452 342.8 10.6 332 24.6
2009-09-18 07:54:03 51°22.296 2°44.441 342.5 10.6 331 24.8
2009-09-18 07:54:08 51°22.309 2°44.43 342.7 10.6 332 24.9
2009-09-18 07:54:13 51°22.322 2°44.419 343 10.6 332 25
2009-09-18 07:54:18 51°22.335 2°44.407 342.7 10.7 331 25.3
2009-09-18 07:54:23 51°22.347 2°44.396 342.2 10.6 331 25
2009-09-18 07:54:28 51°22.36 2°44.384 342 10.7 330 25.1
2009-09-18 07:54:33 51°22.373 2°44.373 342 10.6 331 25.1
2009-09-18 07:54:38 51°22.386 2°44.361 342.3 10.6 330 25.3
2009-09-18 07:54:42 51°22.396 2°44.352 342 10.5 331 25.5
2009-09-18 07:54:48 51°22.411 2°44.338 342.5 10.5 331 25.5
2009-09-18 07:54:53 51°22.424 2°44.326 342.4 10.5 331 25.7
2009-09-18 07:54:58 51°22.437 2°44.315 342.2 10.5 330 26.1
2009-09-18 07:55:02 51°22.447 2°44.306 341.6 10.6 330 25.8
2009-09-18 07:55:08 51°22.462 2°44.292 341.9 10.3 331 25.5
2009-09-18 07:55:13 51°22.474 2°44.28 341.9 10.4 330 25.8
2009-09-18 07:55:18 51°22.487 2°44.27 343 10.4 332 25.7
2009-09-18 07:55:22 51°22.497 2°44.259 342 10.7 328 25.6
2009-09-18 07:55:28 51°22.512 2°44.246 341.8 10.3 332 25.8
2009-09-18 07:55:33 51°22.525 2°44.234 342.3 10.6 330 26.1
2009-09-18 07:55:38 51°22.537 2°44.223 342.6 10.5 332 26.1
2009-09-18 07:55:43 51°22.55 2°44.211 342.7 10.6 329 25.8
2009-09-18 07:55:48 51°22.563 2°44.2 342.7 10.5 332 26.3
2009-09-18 07:55:53 51°22.576 2°44.188 342.8 10.6 330 26.2
2009-09-18 07:55:58 51°22.589 2°44.177 342.5 10.6 331 26.3
2009-09-18 07:56:03 51°22.602 2°44.165 342.7 10.6 331 26.5
2009-09-18 07:56:08 51°22.614 2°44.154 343.1 10.6 330 26.3
2009-09-18 07:56:13 51°22.627 2°44.142 342.5 10.5 331 26
2009-09-18 07:56:18 51°22.64 2°44.132 343.1 10.5 333 26.3
2009-09-18 07:56:23 51°22.653 2°44.121 343.7 10.5 333 26.1
2009-09-18 07:56:28 51°22.666 2°44.109 343.1 10.7 331 26
2009-09-18 07:56:33 51°22.679 2°44.099 342.6 10.7 332 25.9
2009-09-18 07:56:38 51°22.691 2°44.087 342.1 10.7 328 26.1
2009-09-18 07:56:43 51°22.704 2°44.075 341.6 10.6 331 26.4
2009-09-18 07:56:48 51°22.717 2°44.063 342.2 10.7 329 26.1
2009-09-18 07:56:53 51°22.73 2°44.051 342.3 10.7 330 26
2009-09-18 07:56:57 51°22.74 2°44.041 341.6 10.7 330 25.9
2009-09-18 07:57:02 51°22.753 2°44.03 342 10.6 330 25.9
2009-09-18 07:57:08 51°22.768 2°44.014 342.1 10.7 328 26.1
2009-09-18 07:57:13 51°22.78 2°44.002 341.5 10.7 329 26
2009-09-18 07:57:18 51°22.793 2°43.99 341.9 10.4 329 26.2
2009-09-18 07:57:22 51°22.803 2°43.981 341.3 10.5 329 26.4
2009-09-18 07:57:28 51°22.818 2°43.967 341.9 10.5 331 26.1
2009-09-18 07:57:33 51°22.831 2°43.955 342.2 10.5 330 25.9
2009-09-18 07:57:38 51°22.843 2°43.944 342 10.6 330 25.9
2009-09-18 07:57:42 51°22.854 2°43.934 341.2 10.6 329 26
2009-09-18 07:57:48 51°22.869 2°43.92 341.7 10.6 331 26.6
2009-09-18 07:57:53 51°22.882 2°43.908 342.5 10.8 328 26.5